Terminal Aerodrome Forecast
Issued by NWS Northern Indiana

Home | Current Version | Previous Version | Text Only | Print | Product List | Glossary On
Versions: 1 2 3 4 5 6 7 8 9 10 11 12 13 14
000
FTUS43 KIWX 252300 RRA
TAFFWA
TAF
KFWA 252339Z 2600/2624 22014G22KT P6SM FEW050 BKN250
     FM260130 20010KT P6SM SCT250
     FM260900 20010KT 6SM BR BKN020
      TEMPO 2610/2614 3SM BR BKN010
     FM261400 19012G20KT P6SM BKN030
     FM261700 20018G26KT P6SM BKN040
      TEMPO 2620/2624 3SM SHRA BR OVC025=

USA.gov is the U.S. government's official web portal to all federal, state and local government web resources and services.